Airport ID:KMHV
Update Time (UTC):19/11/2019 21:45
Wind Speed (Knots):\\\\
Wind Direction (Magnetic):200
Temperature (°C):24
Dew Point (°C):-7
Humidity (%):13
Altimeter (inHg):29.66
Density Altitude (Feet):4800
Visibility (Miles):9
Clouds (Hundreds of feet):CLR
Present Weather:
METAR:METAR KMHV 192140Z AUTO 21021G28KT 9SM CLR 24/M07 A2966 RMK A01

The data displayed is for advisory purposes only and is not to be used for flight planning or operations.

This page is not automatically refreshed. Reload the page to see current data.